sensor_id;sensor_type;location;lat;lon;timestamp;P1;durP1;ratioP1;P2;durP2;ratioP2
71806;SDS011;59655;42.590;23.364;2023-03-24T00:00:44;4.70;;;2.90;;
71806;SDS011;59655;42.590;23.364;2023-03-24T00:03:11;3.85;;;2.60;;
71806;SDS011;59655;42.590;23.364;2023-03-24T00:05:36;3.88;;;2.42;;
71806;SDS011;59655;42.590;23.364;2023-03-24T00:08:02;4.30;;;2.58;;
71806;SDS011;59655;42.590;23.364;2023-03-24T00:10:29;3.80;;;2.75;;
71806;SDS011;59655;42.590;23.364;2023-03-24T00:12:58;4.32;;;2.47;;
71806;SDS011;59655;42.590;23.364;2023-03-24T00:15:24;3.97;;;2.58;;
71806;SDS011;59655;42.590;23.364;2023-03-24T00:17:50;3.83;;;2.58;;
71806;SDS011;59655;42.590;23.364;2023-03-24T00:20:17;3.88;;;2.60;;
71806;SDS011;59655;42.590;23.364;2023-03-24T00:22:45;3.55;;;2.22;;
71806;SDS011;59655;42.590;23.364;2023-03-24T00:25:14;3.70;;;2.40;;
71806;SDS011;59655;42.590;23.364;2023-03-24T00:27:40;2.90;;;2.20;;
71806;SDS011;59655;42.590;23.364;2023-03-24T00:30:09;3.13;;;2.30;;
71806;SDS011;59655;42.590;23.364;2023-03-24T00:32:36;3.55;;;2.35;;
71806;SDS011;59655;42.590;23.364;2023-03-24T00:35:06;3.63;;;2.45;;
71806;SDS011;59655;42.590;23.364;2023-03-24T00:37:34;3.47;;;2.25;;
71806;SDS011;59655;42.590;23.364;2023-03-24T00:40:05;3.63;;;2.47;;
71806;SDS011;59655;42.590;23.364;2023-03-24T00:42:33;5.22;;;3.72;;
71806;SDS011;59655;42.590;23.364;2023-03-24T00:45:01;5.97;;;4.65;;
71806;SDS011;59655;42.590;23.364;2023-03-24T00:47:30;5.90;;;4.00;;
71806;SDS011;59655;42.590;23.364;2023-03-24T00:50:04;5.07;;;3.75;;
71806;SDS011;59655;42.590;23.364;2023-03-24T00:52:31;5.55;;;3.55;;
71806;SDS011;59655;42.590;23.364;2023-03-24T00:54:58;4.35;;;3.30;;
71806;SDS011;59655;42.590;23.364;2023-03-24T00:57:25;5.20;;;3.20;;
71806;SDS011;59655;42.590;23.364;2023-03-24T00:59:54;3.95;;;3.22;;
71806;SDS011;59655;42.590;23.364;2023-03-24T01:02:24;4.25;;;3.00;;
71806;SDS011;59655;42.590;23.364;2023-03-24T01:04:55;7.53;;;3.63;;
71806;SDS011;59655;42.590;23.364;2023-03-24T01:07:23;4.40;;;3.30;;
71806;SDS011;59655;42.590;23.364;2023-03-24T01:09:50;4.63;;;3.35;;
71806;SDS011;59655;42.590;23.364;2023-03-24T01:12:25;5.18;;;3.65;;
71806;SDS011;59655;42.590;23.364;2023-03-24T01:14:52;4.57;;;3.20;;
71806;SDS011;59655;42.590;23.364;2023-03-24T01:17:18;5.03;;;3.55;;
71806;SDS011;59655;42.590;23.364;2023-03-24T01:19:46;5.57;;;3.75;;
71806;SDS011;59655;42.590;23.364;2023-03-24T01:22:12;5.72;;;4.22;;
71806;SDS011;59655;42.590;23.364;2023-03-24T01:24:38;5.03;;;4.13;;
71806;SDS011;59655;42.590;23.364;2023-03-24T01:27:04;5.43;;;4.38;;
71806;SDS011;59655;42.590;23.364;2023-03-24T01:29:30;5.80;;;4.20;;
71806;SDS011;59655;42.590;23.364;2023-03-24T01:31:55;6.80;;;4.10;;
71806;SDS011;59655;42.590;23.364;2023-03-24T01:34:22;5.93;;;4.03;;
71806;SDS011;59655;42.590;23.364;2023-03-24T01:36:48;7.50;;;4.25;;
71806;SDS011;59655;42.590;23.364;2023-03-24T01:39:14;5.63;;;4.25;;
71806;SDS011;59655;42.590;23.364;2023-03-24T01:41:39;6.30;;;4.32;;
71806;SDS011;59655;42.590;23.364;2023-03-24T01:47:00;7.03;;;4.60;;
71806;SDS011;59655;42.590;23.364;2023-03-24T01:49:37;5.68;;;4.18;;
71806;SDS011;59655;42.590;23.364;2023-03-24T01:52:13;6.43;;;4.13;;
71806;SDS011;59655;42.590;23.364;2023-03-24T01:54:47;5.95;;;3.95;;
71806;SDS011;59655;42.590;23.364;2023-03-24T01:57:28;6.15;;;3.88;;
71806;SDS011;59655;42.590;23.364;2023-03-24T01:59:56;5.50;;;3.78;;
71806;SDS011;59655;42.590;23.364;2023-03-24T02:02:25;5.25;;;3.20;;
71806;SDS011;59655;42.590;23.364;2023-03-24T02:04:56;4.53;;;3.67;;
71806;SDS011;59655;42.590;23.364;2023-03-24T02:07:30;5.80;;;3.78;;
71806;SDS011;59655;42.590;23.364;2023-03-24T02:09:58;5.68;;;3.95;;
71806;SDS011;59655;42.590;23.364;2023-03-24T02:12:25;6.72;;;4.15;;
71806;SDS011;59655;42.590;23.364;2023-03-24T02:14:51;5.20;;;3.97;;
71806;SDS011;59655;42.590;23.364;2023-03-24T02:50:29;8.00;;;5.50;;
71806;SDS011;59655;42.590;23.364;2023-03-24T02:53:22;8.20;;;5.00;;
71806;SDS011;59655;42.590;23.364;2023-03-24T02:56:02;4.57;;;3.40;;
71806;SDS011;59655;42.590;23.364;2023-03-24T03:01:18;5.32;;;3.47;;
71806;SDS011;59655;42.590;23.364;2023-03-24T03:03:56;4.47;;;3.00;;
71806;SDS011;59655;42.590;23.364;2023-03-24T03:06:27;4.50;;;2.97;;
71806;SDS011;59655;42.590;23.364;2023-03-24T03:08:56;4.75;;;3.10;;
71806;SDS011;59655;42.590;23.364;2023-03-24T03:11:25;5.55;;;3.28;;
71806;SDS011;59655;42.590;23.364;2023-03-24T03:13:58;5.65;;;3.60;;
71806;SDS011;59655;42.590;23.364;2023-03-24T03:16:38;5.28;;;3.10;;
71806;SDS011;59655;42.590;23.364;2023-03-24T03:19:23;5.38;;;3.45;;
71806;SDS011;59655;42.590;23.364;2023-03-24T03:21:54;6.75;;;3.30;;
71806;SDS011;59655;42.590;23.364;2023-03-24T03:24:21;4.85;;;3.30;;
71806;SDS011;59655;42.590;23.364;2023-03-24T03:26:53;6.60;;;3.38;;
71806;SDS011;59655;42.590;23.364;2023-03-24T03:29:34;5.57;;;3.40;;
71806;SDS011;59655;42.590;23.364;2023-03-24T03:32:03;7.18;;;3.20;;
71806;SDS011;59655;42.590;23.364;2023-03-24T03:39:49;3.70;;;2.70;;
71806;SDS011;59655;42.590;23.364;2023-03-24T03:42:29;4.85;;;2.90;;
71806;SDS011;59655;42.590;23.364;2023-03-24T03:44:54;4.57;;;2.67;;
71806;SDS011;59655;42.590;23.364;2023-03-24T03:47:20;4.20;;;2.95;;
71806;SDS011;59655;42.590;23.364;2023-03-24T03:49:47;6.28;;;4.25;;
71806;SDS011;59655;42.590;23.364;2023-03-24T03:52:13;6.47;;;4.25;;
71806;SDS011;59655;42.590;23.364;2023-03-24T03:54:40;3.10;;;2.40;;
71806;SDS011;59655;42.590;23.364;2023-03-24T03:57:07;4.03;;;2.17;;
71806;SDS011;59655;42.590;23.364;2023-03-24T03:59:34;3.13;;;2.22;;
71806;SDS011;59655;42.590;23.364;2023-03-24T04:19:09;4.90;;;3.58;;
71806;SDS011;59655;42.590;23.364;2023-03-24T04:21:58;4.63;;;3.42;;
71806;SDS011;59655;42.590;23.364;2023-03-24T04:24:48;5.70;;;4.50;;
71806;SDS011;59655;42.590;23.364;2023-03-24T04:27:26;4.82;;;3.92;;
71806;SDS011;59655;42.590;23.364;2023-03-24T04:30:09;7.25;;;4.65;;
71806;SDS011;59655;42.590;23.364;2023-03-24T04:35:17;8.00;;;4.15;;
71806;SDS011;59655;42.590;23.364;2023-03-24T04:37:55;6.30;;;4.40;;
71806;SDS011;59655;42.590;23.364;2023-03-24T04:40:26;7.15;;;4.60;;
71806;SDS011;59655;42.590;23.364;2023-03-24T04:42:53;9.13;;;4.60;;
71806;SDS011;59655;42.590;23.364;2023-03-24T04:45:21;7.85;;;3.83;;
71806;SDS011;59655;42.590;23.364;2023-03-24T04:47:51;9.32;;;5.05;;
71806;SDS011;59655;42.590;23.364;2023-03-24T04:53:19;4.55;;;3.42;;
71806;SDS011;59655;42.590;23.364;2023-03-24T04:58:13;3.90;;;2.85;;
71806;SDS011;59655;42.590;23.364;2023-03-24T05:00:40;6.70;;;3.42;;
71806;SDS011;59655;42.590;23.364;2023-03-24T05:03:08;7.45;;;4.07;;
71806;SDS011;59655;42.590;23.364;2023-03-24T05:05:38;5.88;;;3.50;;
71806;SDS011;59655;42.590;23.364;2023-03-24T05:08:05;7.07;;;3.50;;
71806;SDS011;59655;42.590;23.364;2023-03-24T05:10:30;8.25;;;3.50;;
71806;SDS011;59655;42.590;23.364;2023-03-24T05:12:56;6.72;;;3.65;;
71806;SDS011;59655;42.590;23.364;2023-03-24T05:15:21;6.28;;;3.78;;
71806;SDS011;59655;42.590;23.364;2023-03-24T05:17:47;5.82;;;3.70;;
71806;SDS011;59655;42.590;23.364;2023-03-24T05:20:12;5.05;;;3.67;;
71806;SDS011;59655;42.590;23.364;2023-03-24T05:22:39;4.75;;;3.70;;
71806;SDS011;59655;42.590;23.364;2023-03-24T05:25:04;5.25;;;3.92;;
71806;SDS011;59655;42.590;23.364;2023-03-24T05:27:30;5.22;;;4.22;;
71806;SDS011;59655;42.590;23.364;2023-03-24T05:29:56;5.88;;;3.88;;
71806;SDS011;59655;42.590;23.364;2023-03-24T05:32:25;5.85;;;4.30;;
71806;SDS011;59655;42.590;23.364;2023-03-24T05:34:51;8.45;;;4.57;;
71806;SDS011;59655;42.590;23.364;2023-03-24T05:37:16;10.15;;;4.70;;
71806;SDS011;59655;42.590;23.364;2023-03-24T05:39:42;13.07;;;5.07;;
71806;SDS011;59655;42.590;23.364;2023-03-24T05:42:08;10.23;;;5.78;;
71806;SDS011;59655;42.590;23.364;2023-03-24T05:44:34;7.35;;;5.40;;
71806;SDS011;59655;42.590;23.364;2023-03-24T05:47:00;7.47;;;5.38;;
71806;SDS011;59655;42.590;23.364;2023-03-24T05:49:25;8.65;;;4.63;;
71806;SDS011;59655;42.590;23.364;2023-03-24T05:51:50;7.90;;;4.43;;
71806;SDS011;59655;42.590;23.364;2023-03-24T05:54:16;7.43;;;4.28;;
71806;SDS011;59655;42.590;23.364;2023-03-24T05:56:42;6.40;;;4.05;;
71806;SDS011;59655;42.590;23.364;2023-03-24T05:59:07;9.88;;;4.03;;
71806;SDS011;59655;42.590;23.364;2023-03-24T06:01:33;6.85;;;4.38;;
71806;SDS011;59655;42.590;23.364;2023-03-24T06:03:58;8.38;;;5.30;;
71806;SDS011;59655;42.590;23.364;2023-03-24T06:06:24;7.43;;;5.93;;
71806;SDS011;59655;42.590;23.364;2023-03-24T06:08:50;10.50;;;6.05;;
71806;SDS011;59655;42.590;23.364;2023-03-24T06:11:19;8.73;;;5.65;;
71806;SDS011;59655;42.590;23.364;2023-03-24T06:13:44;6.47;;;4.38;;
71806;SDS011;59655;42.590;23.364;2023-03-24T06:16:10;5.05;;;4.15;;
71806;SDS011;59655;42.590;23.364;2023-03-24T06:18:35;5.57;;;4.22;;
71806;SDS011;59655;42.590;23.364;2023-03-24T06:21:04;5.65;;;3.90;;
71806;SDS011;59655;42.590;23.364;2023-03-24T06:23:30;6.07;;;4.50;;
71806;SDS011;59655;42.590;23.364;2023-03-24T06:25:58;7.47;;;4.65;;
71806;SDS011;59655;42.590;23.364;2023-03-24T06:28:25;5.95;;;5.00;;
71806;SDS011;59655;42.590;23.364;2023-03-24T06:30:54;8.95;;;5.50;;
71806;SDS011;59655;42.590;23.364;2023-03-24T06:33:20;6.22;;;5.03;;
71806;SDS011;59655;42.590;23.364;2023-03-24T06:35:49;7.13;;;5.32;;
71806;SDS011;59655;42.590;23.364;2023-03-24T06:38:16;6.53;;;5.38;;
71806;SDS011;59655;42.590;23.364;2023-03-24T06:40:41;7.80;;;5.28;;
71806;SDS011;59655;42.590;23.364;2023-03-24T06:43:07;7.10;;;5.35;;
71806;SDS011;59655;42.590;23.364;2023-03-24T06:45:32;5.90;;;4.57;;
71806;SDS011;59655;42.590;23.364;2023-03-24T06:47:58;6.90;;;4.75;;
71806;SDS011;59655;42.590;23.364;2023-03-24T06:50:24;6.78;;;3.80;;
71806;SDS011;59655;42.590;23.364;2023-03-24T06:52:57;6.15;;;4.70;;
71806;SDS011;59655;42.590;23.364;2023-03-24T06:55:23;6.28;;;4.32;;
71806;SDS011;59655;42.590;23.364;2023-03-24T06:57:51;6.13;;;4.75;;
71806;SDS011;59655;42.590;23.364;2023-03-24T07:00:16;6.22;;;4.75;;
71806;SDS011;59655;42.590;23.364;2023-03-24T07:02:43;6.40;;;5.35;;
71806;SDS011;59655;42.590;23.364;2023-03-24T07:05:09;6.05;;;5.22;;
71806;SDS011;59655;42.590;23.364;2023-03-24T07:07:36;7.50;;;5.80;;
71806;SDS011;59655;42.590;23.364;2023-03-24T07:10:03;6.70;;;5.53;;
71806;SDS011;59655;42.590;23.364;2023-03-24T07:12:29;6.68;;;5.63;;
71806;SDS011;59655;42.590;23.364;2023-03-24T07:14:55;6.88;;;4.88;;
71806;SDS011;59655;42.590;23.364;2023-03-24T07:17:21;9.82;;;5.75;;
71806;SDS011;59655;42.590;23.364;2023-03-24T07:19:47;7.90;;;5.63;;
71806;SDS011;59655;42.590;23.364;2023-03-24T07:22:12;6.07;;;5.32;;
71806;SDS011;59655;42.590;23.364;2023-03-24T07:24:38;8.43;;;5.35;;
71806;SDS011;59655;42.590;23.364;2023-03-24T07:27:03;6.63;;;4.65;;
71806;SDS011;59655;42.590;23.364;2023-03-24T07:29:29;7.35;;;4.88;;
71806;SDS011;59655;42.590;23.364;2023-03-24T07:31:55;5.57;;;4.70;;
71806;SDS011;59655;42.590;23.364;2023-03-24T07:34:25;7.85;;;4.97;;
71806;SDS011;59655;42.590;23.364;2023-03-24T07:36:51;7.25;;;4.55;;
71806;SDS011;59655;42.590;23.364;2023-03-24T07:39:16;7.15;;;5.63;;
71806;SDS011;59655;42.590;23.364;2023-03-24T07:41:42;6.30;;;4.78;;
71806;SDS011;59655;42.590;23.364;2023-03-24T07:44:07;6.13;;;4.55;;
71806;SDS011;59655;42.590;23.364;2023-03-24T07:46:33;6.47;;;5.28;;
71806;SDS011;59655;42.590;23.364;2023-03-24T07:49:00;6.38;;;5.13;;
71806;SDS011;59655;42.590;23.364;2023-03-24T07:51:26;6.65;;;5.10;;
71806;SDS011;59655;42.590;23.364;2023-03-24T07:53:52;6.68;;;5.30;;
71806;SDS011;59655;42.590;23.364;2023-03-24T07:56:18;6.90;;;5.35;;
71806;SDS011;59655;42.590;23.364;2023-03-24T07:58:43;6.78;;;5.30;;
71806;SDS011;59655;42.590;23.364;2023-03-24T08:01:09;6.60;;;4.95;;
71806;SDS011;59655;42.590;23.364;2023-03-24T08:03:35;7.00;;;5.07;;
71806;SDS011;59655;42.590;23.364;2023-03-24T08:06:01;6.88;;;5.35;;
71806;SDS011;59655;42.590;23.364;2023-03-24T08:08:28;7.40;;;5.85;;
71806;SDS011;59655;42.590;23.364;2023-03-24T08:10:54;6.18;;;5.22;;
71806;SDS011;59655;42.590;23.364;2023-03-24T08:13:20;7.65;;;5.00;;
71806;SDS011;59655;42.590;23.364;2023-03-24T08:15:45;6.53;;;4.80;;
71806;SDS011;59655;42.590;23.364;2023-03-24T08:18:11;6.20;;;4.90;;
71806;SDS011;59655;42.590;23.364;2023-03-24T08:20:36;6.25;;;4.35;;
71806;SDS011;59655;42.590;23.364;2023-03-24T08:23:01;7.85;;;4.93;;
71806;SDS011;59655;42.590;23.364;2023-03-24T08:25:28;6.15;;;4.75;;
71806;SDS011;59655;42.590;23.364;2023-03-24T08:27:54;4.90;;;4.03;;
71806;SDS011;59655;42.590;23.364;2023-03-24T08:30:20;5.45;;;4.25;;
71806;SDS011;59655;42.590;23.364;2023-03-24T08:32:51;5.97;;;4.75;;
71806;SDS011;59655;42.590;23.364;2023-03-24T08:35:22;5.80;;;4.55;;
71806;SDS011;59655;42.590;23.364;2023-03-24T08:37:49;6.43;;;4.57;;
71806;SDS011;59655;42.590;23.364;2023-03-24T08:40:16;4.97;;;4.40;;
71806;SDS011;59655;42.590;23.364;2023-03-24T08:42:46;6.13;;;5.00;;
71806;SDS011;59655;42.590;23.364;2023-03-24T08:45:13;9.00;;;5.32;;
71806;SDS011;59655;42.590;23.364;2023-03-24T08:47:39;12.75;;;6.05;;
71806;SDS011;59655;42.590;23.364;2023-03-24T08:50:06;10.57;;;5.45;;
71806;SDS011;59655;42.590;23.364;2023-03-24T08:52:34;7.22;;;5.13;;
71806;SDS011;59655;42.590;23.364;2023-03-24T08:55:00;6.43;;;5.18;;
71806;SDS011;59655;42.590;23.364;2023-03-24T08:57:26;6.95;;;5.53;;
71806;SDS011;59655;42.590;23.364;2023-03-24T08:59:51;7.82;;;5.38;;
71806;SDS011;59655;42.590;23.364;2023-03-24T09:02:17;6.45;;;5.35;;
71806;SDS011;59655;42.590;23.364;2023-03-24T09:04:42;7.47;;;5.18;;
71806;SDS011;59655;42.590;23.364;2023-03-24T09:07:10;5.82;;;4.47;;
71806;SDS011;59655;42.590;23.364;2023-03-24T09:09:36;7.10;;;4.82;;
71806;SDS011;59655;42.590;23.364;2023-03-24T09:12:03;7.75;;;5.38;;
71806;SDS011;59655;42.590;23.364;2023-03-24T09:14:29;16.98;;;5.80;;
71806;SDS011;59655;42.590;23.364;2023-03-24T09:16:55;6.53;;;4.45;;
71806;SDS011;59655;42.590;23.364;2023-03-24T09:19:20;6.68;;;4.90;;
71806;SDS011;59655;42.590;23.364;2023-03-24T09:21:46;7.82;;;4.75;;
71806;SDS011;59655;42.590;23.364;2023-03-24T09:24:12;6.45;;;4.70;;
71806;SDS011;59655;42.590;23.364;2023-03-24T09:26:39;8.50;;;4.45;;
71806;SDS011;59655;42.590;23.364;2023-03-24T09:29:05;5.93;;;4.78;;
71806;SDS011;59655;42.590;23.364;2023-03-24T09:31:31;5.60;;;4.10;;
71806;SDS011;59655;42.590;23.364;2023-03-24T09:33:56;5.95;;;4.78;;
71806;SDS011;59655;42.590;23.364;2023-03-24T09:36:22;5.60;;;3.75;;
71806;SDS011;59655;42.590;23.364;2023-03-24T09:38:47;6.35;;;4.38;;
71806;SDS011;59655;42.590;23.364;2023-03-24T09:41:17;4.85;;;3.90;;
71806;SDS011;59655;42.590;23.364;2023-03-24T09:46:11;5.93;;;3.70;;
71806;SDS011;59655;42.590;23.364;2023-03-24T09:48:45;5.22;;;3.70;;
71806;SDS011;59655;42.590;23.364;2023-03-24T09:56:34;4.60;;;3.30;;
71806;SDS011;59655;42.590;23.364;2023-03-24T09:59:05;5.32;;;3.58;;
71806;SDS011;59655;42.590;23.364;2023-03-24T10:01:36;6.03;;;3.63;;
71806;SDS011;59655;42.590;23.364;2023-03-24T10:04:02;4.72;;;3.45;;
71806;SDS011;59655;42.590;23.364;2023-03-24T10:06:38;3.83;;;3.00;;
71806;SDS011;59655;42.590;23.364;2023-03-24T10:14:45;3.58;;;2.40;;
71806;SDS011;59655;42.590;23.364;2023-03-24T10:28:22;6.25;;;3.25;;
71806;SDS011;59655;42.590;23.364;2023-03-24T10:30:52;4.78;;;2.60;;
71806;SDS011;59655;42.590;23.364;2023-03-24T10:33:21;6.03;;;3.50;;
71806;SDS011;59655;42.590;23.364;2023-03-24T10:35:54;6.38;;;2.75;;
71806;SDS011;59655;42.590;23.364;2023-03-24T10:38:26;5.53;;;2.90;;
71806;SDS011;59655;42.590;23.364;2023-03-24T10:40:51;3.78;;;2.67;;
71806;SDS011;59655;42.590;23.364;2023-03-24T10:43:18;4.70;;;3.08;;
71806;SDS011;59655;42.590;23.364;2023-03-24T10:45:46;5.00;;;3.15;;
71806;SDS011;59655;42.590;23.364;2023-03-24T10:48:32;4.30;;;3.25;;
71806;SDS011;59655;42.590;23.364;2023-03-24T10:51:04;4.97;;;3.50;;
71806;SDS011;59655;42.590;23.364;2023-03-24T10:53:30;5.30;;;3.08;;
71806;SDS011;59655;42.590;23.364;2023-03-24T10:55:57;4.95;;;3.47;;
71806;SDS011;59655;42.590;23.364;2023-03-24T11:01:01;4.93;;;3.45;;
71806;SDS011;59655;42.590;23.364;2023-03-24T11:03:33;5.38;;;3.38;;
71806;SDS011;59655;42.590;23.364;2023-03-24T11:06:01;4.72;;;3.15;;
71806;SDS011;59655;42.590;23.364;2023-03-24T11:08:32;6.10;;;3.95;;
71806;SDS011;59655;42.590;23.364;2023-03-24T11:11:00;5.82;;;3.78;;
71806;SDS011;59655;42.590;23.364;2023-03-24T11:13:36;6.43;;;4.07;;
71806;SDS011;59655;42.590;23.364;2023-03-24T11:16:15;5.97;;;3.97;;
71806;SDS011;59655;42.590;23.364;2023-03-24T11:21:46;6.32;;;5.05;;
71806;SDS011;59655;42.590;23.364;2023-03-24T11:24:14;6.18;;;4.32;;
71806;SDS011;59655;42.590;23.364;2023-03-24T11:26:53;7.00;;;4.13;;
71806;SDS011;59655;42.590;23.364;2023-03-24T11:29:24;6.18;;;4.40;;
71806;SDS011;59655;42.590;23.364;2023-03-24T11:32:05;5.95;;;4.55;;
71806;SDS011;59655;42.590;23.364;2023-03-24T11:34:38;5.78;;;3.83;;
71806;SDS011;59655;42.590;23.364;2023-03-24T11:37:32;7.13;;;4.50;;
71806;SDS011;59655;42.590;23.364;2023-03-24T11:40:14;6.65;;;4.70;;
71806;SDS011;59655;42.590;23.364;2023-03-24T11:42:47;6.63;;;5.00;;
71806;SDS011;59655;42.590;23.364;2023-03-24T11:45:22;7.95;;;4.70;;
71806;SDS011;59655;42.590;23.364;2023-03-24T11:48:01;6.97;;;4.65;;
71806;SDS011;59655;42.590;23.364;2023-03-24T11:50:37;6.28;;;4.53;;
71806;SDS011;59655;42.590;23.364;2023-03-24T11:55:43;8.10;;;4.28;;
71806;SDS011;59655;42.590;23.364;2023-03-24T12:01:03;6.47;;;4.43;;
71806;SDS011;59655;42.590;23.364;2023-03-24T12:11:55;7.50;;;4.47;;
71806;SDS011;59655;42.590;23.364;2023-03-24T12:14:40;5.32;;;3.95;;
71806;SDS011;59655;42.590;23.364;2023-03-24T12:17:14;6.10;;;3.92;;
71806;SDS011;59655;42.590;23.364;2023-03-24T12:23:02;5.28;;;4.05;;
71806;SDS011;59655;42.590;23.364;2023-03-24T12:42:33;7.55;;;3.35;;
71806;SDS011;59655;42.590;23.364;2023-03-24T12:47:55;6.78;;;3.50;;
71806;SDS011;59655;42.590;23.364;2023-03-24T12:53:33;6.32;;;3.83;;
71806;SDS011;59655;42.590;23.364;2023-03-24T12:56:24;5.68;;;3.63;;
71806;SDS011;59655;42.590;23.364;2023-03-24T12:59:01;7.07;;;3.78;;
71806;SDS011;59655;42.590;23.364;2023-03-24T13:04:07;4.60;;;3.50;;
71806;SDS011;59655;42.590;23.364;2023-03-24T13:06:49;5.25;;;3.85;;
71806;SDS011;59655;42.590;23.364;2023-03-24T13:20:25;7.88;;;3.20;;
71806;SDS011;59655;42.590;23.364;2023-03-24T13:22:53;3.72;;;2.88;;
71806;SDS011;59655;42.590;23.364;2023-03-24T13:25:29;4.95;;;2.92;;
71806;SDS011;59655;42.590;23.364;2023-03-24T13:28:08;3.70;;;2.95;;
71806;SDS011;59655;42.590;23.364;2023-03-24T13:30:38;5.43;;;2.78;;
71806;SDS011;59655;42.590;23.364;2023-03-24T13:33:15;4.57;;;3.00;;
71806;SDS011;59655;42.590;23.364;2023-03-24T13:38:42;4.50;;;2.83;;
71806;SDS011;59655;42.590;23.364;2023-03-24T13:41:16;4.90;;;2.97;;
71806;SDS011;59655;42.590;23.364;2023-03-24T13:43:47;4.18;;;2.83;;
71806;SDS011;59655;42.590;23.364;2023-03-24T13:46:15;5.57;;;2.65;;
71806;SDS011;59655;42.590;23.364;2023-03-24T13:48:41;5.38;;;2.83;;
71806;SDS011;59655;42.590;23.364;2023-03-24T13:57:05;6.00;;;2.85;;
71806;SDS011;59655;42.590;23.364;2023-03-24T14:02:21;3.78;;;2.70;;
71806;SDS011;59655;42.590;23.364;2023-03-24T14:05:05;4.90;;;2.35;;
71806;SDS011;59655;42.590;23.364;2023-03-24T14:07:49;5.40;;;2.40;;
71806;SDS011;59655;42.590;23.364;2023-03-24T14:15:43;4.85;;;2.70;;
71806;SDS011;59655;42.590;23.364;2023-03-24T14:21:08;4.18;;;2.45;;
71806;SDS011;59655;42.590;23.364;2023-03-24T14:26:07;4.68;;;2.53;;
71806;SDS011;59655;42.590;23.364;2023-03-24T14:28:38;15.50;;;6.18;;
71806;SDS011;59655;42.590;23.364;2023-03-24T14:33:41;8.40;;;4.13;;
71806;SDS011;59655;42.590;23.364;2023-03-24T14:36:24;6.25;;;3.13;;
71806;SDS011;59655;42.590;23.364;2023-03-24T14:38:54;4.75;;;2.42;;
71806;SDS011;59655;42.590;23.364;2023-03-24T14:41:27;5.22;;;2.45;;
71806;SDS011;59655;42.590;23.364;2023-03-24T14:43:58;8.38;;;2.80;;
71806;SDS011;59655;42.590;23.364;2023-03-24T14:49:11;5.38;;;2.03;;
71806;SDS011;59655;42.590;23.364;2023-03-24T14:57:06;4.00;;;2.22;;
71806;SDS011;59655;42.590;23.364;2023-03-24T14:59:38;3.55;;;1.77;;
71806;SDS011;59655;42.590;23.364;2023-03-24T15:08:10;4.97;;;2.20;;
71806;SDS011;59655;42.590;23.364;2023-03-24T15:10:40;4.40;;;1.65;;
71806;SDS011;59655;42.590;23.364;2023-03-24T15:13:19;4.45;;;1.98;;
71806;SDS011;59655;42.590;23.364;2023-03-24T15:15:47;3.10;;;2.00;;
71806;SDS011;59655;42.590;23.364;2023-03-24T15:18:16;5.75;;;2.10;;
71806;SDS011;59655;42.590;23.364;2023-03-24T15:20:43;3.75;;;1.80;;
71806;SDS011;59655;42.590;23.364;2023-03-24T15:23:12;3.67;;;2.00;;
71806;SDS011;59655;42.590;23.364;2023-03-24T15:25:42;3.90;;;1.90;;
71806;SDS011;59655;42.590;23.364;2023-03-24T15:28:19;3.28;;;1.92;;
71806;SDS011;59655;42.590;23.364;2023-03-24T15:30:55;5.22;;;2.10;;
71806;SDS011;59655;42.590;23.364;2023-03-24T15:33:23;4.80;;;2.17;;
71806;SDS011;59655;42.590;23.364;2023-03-24T15:35:53;7.07;;;2.35;;
71806;SDS011;59655;42.590;23.364;2023-03-24T15:38:26;5.47;;;1.92;;
71806;SDS011;59655;42.590;23.364;2023-03-24T15:40:55;3.65;;;1.65;;
71806;SDS011;59655;42.590;23.364;2023-03-24T15:43:22;5.28;;;2.28;;
71806;SDS011;59655;42.590;23.364;2023-03-24T15:45:51;4.13;;;2.00;;
71806;SDS011;59655;42.590;23.364;2023-03-24T15:48:24;3.97;;;2.10;;
71806;SDS011;59655;42.590;23.364;2023-03-24T15:50:58;3.42;;;1.92;;
71806;SDS011;59655;42.590;23.364;2023-03-24T15:56:04;6.15;;;3.70;;
71806;SDS011;59655;42.590;23.364;2023-03-24T16:01:26;12.77;;;7.18;;
71806;SDS011;59655;42.590;23.364;2023-03-24T16:04:00;4.88;;;2.95;;
71806;SDS011;59655;42.590;23.364;2023-03-24T16:06:31;8.75;;;4.22;;
71806;SDS011;59655;42.590;23.364;2023-03-24T16:09:11;11.43;;;8.70;;
71806;SDS011;59655;42.590;23.364;2023-03-24T16:11:38;9.65;;;6.75;;
71806;SDS011;59655;42.590;23.364;2023-03-24T16:14:19;10.23;;;6.75;;
71806;SDS011;59655;42.590;23.364;2023-03-24T16:16:47;11.60;;;7.22;;
71806;SDS011;59655;42.590;23.364;2023-03-24T16:19:16;7.00;;;3.38;;
71806;SDS011;59655;42.590;23.364;2023-03-24T16:21:42;5.88;;;3.20;;
71806;SDS011;59655;42.590;23.364;2023-03-24T16:24:07;6.88;;;2.70;;
71806;SDS011;59655;42.590;23.364;2023-03-24T16:26:32;7.88;;;3.30;;
71806;SDS011;59655;42.590;23.364;2023-03-24T16:28:59;9.07;;;6.35;;
71806;SDS011;59655;42.590;23.364;2023-03-24T16:31:37;10.55;;;7.53;;
71806;SDS011;59655;42.590;23.364;2023-03-24T16:34:03;10.88;;;7.20;;
71806;SDS011;59655;42.590;23.364;2023-03-24T16:36:28;11.45;;;7.50;;
71806;SDS011;59655;42.590;23.364;2023-03-24T16:38:55;10.02;;;7.13;;
71806;SDS011;59655;42.590;23.364;2023-03-24T16:41:22;7.22;;;5.70;;
71806;SDS011;59655;42.590;23.364;2023-03-24T16:43:47;9.77;;;6.32;;
71806;SDS011;59655;42.590;23.364;2023-03-24T16:46:17;6.35;;;5.05;;
71806;SDS011;59655;42.590;23.364;2023-03-24T16:48:46;11.73;;;8.57;;
71806;SDS011;59655;42.590;23.364;2023-03-24T16:51:12;17.65;;;12.10;;
71806;SDS011;59655;42.590;23.364;2023-03-24T16:53:39;20.75;;;14.73;;
71806;SDS011;59655;42.590;23.364;2023-03-24T16:56:06;24.05;;;18.00;;
71806;SDS011;59655;42.590;23.364;2023-03-24T16:58:32;28.73;;;22.25;;
71806;SDS011;59655;42.590;23.364;2023-03-24T17:00:58;32.60;;;23.38;;
71806;SDS011;59655;42.590;23.364;2023-03-24T17:03:26;37.35;;;29.58;;
71806;SDS011;59655;42.590;23.364;2023-03-24T17:05:55;29.40;;;22.75;;
71806;SDS011;59655;42.590;23.364;2023-03-24T17:08:21;29.13;;;20.55;;
71806;SDS011;59655;42.590;23.364;2023-03-24T17:10:48;25.02;;;17.88;;
71806;SDS011;59655;42.590;23.364;2023-03-24T17:13:19;21.30;;;15.60;;
71806;SDS011;59655;42.590;23.364;2023-03-24T17:15:47;18.17;;;13.90;;
71806;SDS011;59655;42.590;23.364;2023-03-24T17:18:13;16.02;;;11.98;;
71806;SDS011;59655;42.590;23.364;2023-03-24T17:20:39;14.45;;;8.93;;
71806;SDS011;59655;42.590;23.364;2023-03-24T17:23:06;13.02;;;8.13;;
71806;SDS011;59655;42.590;23.364;2023-03-24T17:25:33;8.75;;;5.95;;
71806;SDS011;59655;42.590;23.364;2023-03-24T17:27:58;7.97;;;6.30;;
71806;SDS011;59655;42.590;23.364;2023-03-24T17:30:25;7.65;;;6.80;;
71806;SDS011;59655;42.590;23.364;2023-03-24T17:32:51;10.50;;;8.25;;
71806;SDS011;59655;42.590;23.364;2023-03-24T17:35:19;11.88;;;9.43;;
71806;SDS011;59655;42.590;23.364;2023-03-24T17:37:46;8.40;;;6.20;;
71806;SDS011;59655;42.590;23.364;2023-03-24T17:40:12;6.30;;;4.95;;
71806;SDS011;59655;42.590;23.364;2023-03-24T17:42:41;8.52;;;5.20;;
71806;SDS011;59655;42.590;23.364;2023-03-24T17:45:08;8.95;;;5.57;;
71806;SDS011;59655;42.590;23.364;2023-03-24T17:47:36;14.15;;;10.73;;
71806;SDS011;59655;42.590;23.364;2023-03-24T17:50:02;6.03;;;5.20;;
71806;SDS011;59655;42.590;23.364;2023-03-24T17:52:42;6.90;;;3.60;;
71806;SDS011;59655;42.590;23.364;2023-03-24T17:55:12;6.75;;;3.63;;
71806;SDS011;59655;42.590;23.364;2023-03-24T17:57:38;5.57;;;4.82;;
71806;SDS011;59655;42.590;23.364;2023-03-24T18:00:05;6.97;;;4.88;;
71806;SDS011;59655;42.590;23.364;2023-03-24T18:02:36;7.35;;;5.50;;